sensor_id;sensor_type;location;lat;lon;timestamp;temperature;humidity
9984;DHT22;16737;50.932;6.780;2023-07-28T00:01:20;20.60;99.90
9984;DHT22;16737;50.932;6.780;2023-07-28T00:03:47;20.60;99.90
9984;DHT22;16737;50.932;6.780;2023-07-28T00:06:14;20.60;99.90
9984;DHT22;16737;50.932;6.780;2023-07-28T00:08:41;20.60;99.90
9984;DHT22;16737;50.932;6.780;2023-07-28T00:11:09;20.60;99.90
9984;DHT22;16737;50.932;6.780;2023-07-28T00:13:37;20.60;99.90
9984;DHT22;16737;50.932;6.780;2023-07-28T00:16:07;20.60;99.90
9984;DHT22;16737;50.932;6.780;2023-07-28T00:18:35;20.60;99.90
9984;DHT22;16737;50.932;6.780;2023-07-28T00:21:05;20.60;99.90
9984;DHT22;16737;50.932;6.780;2023-07-28T00:23:32;20.60;99.90
9984;DHT22;16737;50.932;6.780;2023-07-28T00:26:00;20.60;99.90
9984;DHT22;16737;50.932;6.780;2023-07-28T00:28:27;20.70;99.90
9984;DHT22;16737;50.932;6.780;2023-07-28T00:30:54;20.70;99.90
9984;DHT22;16737;50.932;6.780;2023-07-28T00:33:23;20.70;99.90
9984;DHT22;16737;50.932;6.780;2023-07-28T00:35:50;20.70;99.90
9984;DHT22;16737;50.932;6.780;2023-07-28T00:38:17;20.70;99.90
9984;DHT22;16737;50.932;6.780;2023-07-28T00:40:44;20.70;99.90
9984;DHT22;16737;50.932;6.780;2023-07-28T00:43:11;20.70;99.90
9984;DHT22;16737;50.932;6.780;2023-07-28T00:45:38;20.70;99.90
9984;DHT22;16737;50.932;6.780;2023-07-28T00:48:11;20.70;99.90
9984;DHT22;16737;50.932;6.780;2023-07-28T00:50:41;20.70;99.90
9984;DHT22;16737;50.932;6.780;2023-07-28T00:53:10;20.70;99.90
9984;DHT22;16737;50.932;6.780;2023-07-28T00:55:37;20.70;99.90
9984;DHT22;16737;50.932;6.780;2023-07-28T00:58:05;20.70;99.90
9984;DHT22;16737;50.932;6.780;2023-07-28T01:00:32;20.80;99.90
9984;DHT22;16737;50.932;6.780;2023-07-28T01:02:59;20.70;99.90
9984;DHT22;16737;50.932;6.780;2023-07-28T01:05:32;20.70;99.90
9984;DHT22;16737;50.932;6.780;2023-07-28T01:08:24;20.80;99.90
9984;DHT22;16737;50.932;6.780;2023-07-28T01:10:53;20.80;99.90
9984;DHT22;16737;50.932;6.780;2023-07-28T01:13:20;20.80;99.90
9984;DHT22;16737;50.932;6.780;2023-07-28T01:15:47;20.80;99.90
9984;DHT22;16737;50.932;6.780;2023-07-28T01:18:14;20.80;99.90
9984;DHT22;16737;50.932;6.780;2023-07-28T01:20:42;20.80;99.90
9984;DHT22;16737;50.932;6.780;2023-07-28T01:23:20;20.80;99.90
9984;DHT22;16737;50.932;6.780;2023-07-28T01:26:05;20.80;99.90
9984;DHT22;16737;50.932;6.780;2023-07-28T01:28:36;20.80;99.90
9984;DHT22;16737;50.932;6.780;2023-07-28T01:31:05;20.80;99.90
9984;DHT22;16737;50.932;6.780;2023-07-28T01:33:33;20.80;99.90
9984;DHT22;16737;50.932;6.780;2023-07-28T01:36:00;20.80;99.90
9984;DHT22;16737;50.932;6.780;2023-07-28T01:38:28;20.80;99.90
9984;DHT22;16737;50.932;6.780;2023-07-28T01:40:55;20.80;99.90
9984;DHT22;16737;50.932;6.780;2023-07-28T01:43:22;20.80;99.90
9984;DHT22;16737;50.932;6.780;2023-07-28T01:45:50;20.80;99.90
9984;DHT22;16737;50.932;6.780;2023-07-28T01:48:17;20.80;99.90
9984;DHT22;16737;50.932;6.780;2023-07-28T01:50:44;20.90;99.90
9984;DHT22;16737;50.932;6.780;2023-07-28T01:53:11;20.80;99.90
9984;DHT22;16737;50.932;6.780;2023-07-28T01:55:38;20.90;99.90
9984;DHT22;16737;50.932;6.780;2023-07-28T01:58:05;20.80;99.90
9984;DHT22;16737;50.932;6.780;2023-07-28T02:00:32;20.90;99.90
9984;DHT22;16737;50.932;6.780;2023-07-28T02:03:00;20.80;99.90
9984;DHT22;16737;50.932;6.780;2023-07-28T02:05:29;20.90;99.90
9984;DHT22;16737;50.932;6.780;2023-07-28T02:07:56;20.80;99.90
9984;DHT22;16737;50.932;6.780;2023-07-28T02:10:26;20.90;99.90
9984;DHT22;16737;50.932;6.780;2023-07-28T02:12:54;20.90;99.90
9984;DHT22;16737;50.932;6.780;2023-07-28T02:15:21;20.90;99.90
9984;DHT22;16737;50.932;6.780;2023-07-28T02:17:48;20.90;99.90
9984;DHT22;16737;50.932;6.780;2023-07-28T02:20:17;20.90;99.90
9984;DHT22;16737;50.932;6.780;2023-07-28T02:22:44;20.90;99.90
9984;DHT22;16737;50.932;6.780;2023-07-28T02:25:11;20.90;99.90
9984;DHT22;16737;50.932;6.780;2023-07-28T02:27:38;20.90;99.90
9984;DHT22;16737;50.932;6.780;2023-07-28T02:30:06;20.90;99.90
9984;DHT22;16737;50.932;6.780;2023-07-28T02:32:34;20.90;99.90
9984;DHT22;16737;50.932;6.780;2023-07-28T02:35:01;20.90;99.90
9984;DHT22;16737;50.932;6.780;2023-07-28T02:37:29;20.90;99.90
9984;DHT22;16737;50.932;6.780;2023-07-28T02:39:56;20.90;99.90
9984;DHT22;16737;50.932;6.780;2023-07-28T02:42:23;20.90;99.90
9984;DHT22;16737;50.932;6.780;2023-07-28T02:44:50;20.90;99.90
9984;DHT22;16737;50.932;6.780;2023-07-28T02:47:17;20.90;99.90
9984;DHT22;16737;50.932;6.780;2023-07-28T02:49:44;20.90;99.90
9984;DHT22;16737;50.932;6.780;2023-07-28T02:52:11;20.90;99.90
9984;DHT22;16737;50.932;6.780;2023-07-28T02:54:40;20.90;99.90
9984;DHT22;16737;50.932;6.780;2023-07-28T02:57:07;20.90;99.90
9984;DHT22;16737;50.932;6.780;2023-07-28T02:59:34;20.90;99.90
9984;DHT22;16737;50.932;6.780;2023-07-28T03:02:01;20.90;99.90
9984;DHT22;16737;50.932;6.780;2023-07-28T03:04:28;21.00;99.90
9984;DHT22;16737;50.932;6.780;2023-07-28T03:06:55;20.90;99.90
9984;DHT22;16737;50.932;6.780;2023-07-28T03:09:22;20.90;99.90
9984;DHT22;16737;50.932;6.780;2023-07-28T03:11:51;20.90;99.90
9984;DHT22;16737;50.932;6.780;2023-07-28T03:14:17;20.90;99.90
9984;DHT22;16737;50.932;6.780;2023-07-28T03:16:44;21.00;99.90
9984;DHT22;16737;50.932;6.780;2023-07-28T03:19:11;21.00;99.90
9984;DHT22;16737;50.932;6.780;2023-07-28T03:21:38;21.00;99.90
9984;DHT22;16737;50.932;6.780;2023-07-28T03:24:05;21.00;99.90
9984;DHT22;16737;50.932;6.780;2023-07-28T03:26:32;21.00;99.90
9984;DHT22;16737;50.932;6.780;2023-07-28T03:29:00;21.00;99.90
9984;DHT22;16737;50.932;6.780;2023-07-28T03:31:27;21.00;99.90
9984;DHT22;16737;50.932;6.780;2023-07-28T03:33:54;21.00;99.90
9984;DHT22;16737;50.932;6.780;2023-07-28T03:36:21;21.00;99.90
9984;DHT22;16737;50.932;6.780;2023-07-28T03:38:48;21.00;99.90
9984;DHT22;16737;50.932;6.780;2023-07-28T03:41:15;21.00;99.90
9984;DHT22;16737;50.932;6.780;2023-07-28T03:43:42;21.00;99.90
9984;DHT22;16737;50.932;6.780;2023-07-28T03:46:10;21.00;99.90
9984;DHT22;16737;50.932;6.780;2023-07-28T03:48:39;21.00;99.90
9984;DHT22;16737;50.932;6.780;2023-07-28T03:51:06;21.00;99.90
9984;DHT22;16737;50.932;6.780;2023-07-28T03:53:33;21.00;99.90
9984;DHT22;16737;50.932;6.780;2023-07-28T03:56:01;21.00;99.90
9984;DHT22;16737;50.932;6.780;2023-07-28T03:58:29;21.00;99.90
9984;DHT22;16737;50.932;6.780;2023-07-28T04:00:56;21.00;99.90
9984;DHT22;16737;50.932;6.780;2023-07-28T04:03:24;21.00;99.90
9984;DHT22;16737;50.932;6.780;2023-07-28T04:05:51;21.00;99.90
9984;DHT22;16737;50.932;6.780;2023-07-28T04:08:18;21.10;99.90
9984;DHT22;16737;50.932;6.780;2023-07-28T04:10:47;21.10;99.90
9984;DHT22;16737;50.932;6.780;2023-07-28T04:13:14;21.10;99.90
9984;DHT22;16737;50.932;6.780;2023-07-28T04:15:41;21.10;99.90
9984;DHT22;16737;50.932;6.780;2023-07-28T04:18:08;21.10;99.90
9984;DHT22;16737;50.932;6.780;2023-07-28T04:20:36;21.10;99.90
9984;DHT22;16737;50.932;6.780;2023-07-28T04:23:03;21.10;99.90
9984;DHT22;16737;50.932;6.780;2023-07-28T04:25:30;21.10;99.90
9984;DHT22;16737;50.932;6.780;2023-07-28T04:27:57;21.10;99.90
9984;DHT22;16737;50.932;6.780;2023-07-28T04:30:24;21.10;99.90
9984;DHT22;16737;50.932;6.780;2023-07-28T04:32:51;21.10;99.90
9984;DHT22;16737;50.932;6.780;2023-07-28T04:35:18;21.10;99.90
9984;DHT22;16737;50.932;6.780;2023-07-28T04:37:46;21.10;99.90
9984;DHT22;16737;50.932;6.780;2023-07-28T04:40:13;21.10;99.90
9984;DHT22;16737;50.932;6.780;2023-07-28T04:42:40;21.10;99.90
9984;DHT22;16737;50.932;6.780;2023-07-28T04:45:07;21.10;99.90
9984;DHT22;16737;50.932;6.780;2023-07-28T04:47:35;21.10;99.90
9984;DHT22;16737;50.932;6.780;2023-07-28T04:50:02;21.10;99.90
9984;DHT22;16737;50.932;6.780;2023-07-28T04:52:29;21.10;99.90
9984;DHT22;16737;50.932;6.780;2023-07-28T04:54:59;21.10;99.90
9984;DHT22;16737;50.932;6.780;2023-07-28T04:57:26;21.10;99.90
9984;DHT22;16737;50.932;6.780;2023-07-28T04:59:53;21.10;99.90
9984;DHT22;16737;50.932;6.780;2023-07-28T05:02:20;21.10;99.90
9984;DHT22;16737;50.932;6.780;2023-07-28T05:04:47;21.10;99.90
9984;DHT22;16737;50.932;6.780;2023-07-28T05:07:14;21.10;99.90
9984;DHT22;16737;50.932;6.780;2023-07-28T05:09:41;21.10;99.90
9984;DHT22;16737;50.932;6.780;2023-07-28T05:12:09;21.10;99.90
9984;DHT22;16737;50.932;6.780;2023-07-28T05:14:36;21.10;99.90
9984;DHT22;16737;50.932;6.780;2023-07-28T05:17:03;21.10;99.90
9984;DHT22;16737;50.932;6.780;2023-07-28T05:19:31;21.10;99.90
9984;DHT22;16737;50.932;6.780;2023-07-28T05:21:58;21.10;99.90
9984;DHT22;16737;50.932;6.780;2023-07-28T05:24:25;21.20;99.90
9984;DHT22;16737;50.932;6.780;2023-07-28T05:26:52;21.20;99.90
9984;DHT22;16737;50.932;6.780;2023-07-28T05:29:20;21.20;99.90
9984;DHT22;16737;50.932;6.780;2023-07-28T05:31:47;21.20;99.90
9984;DHT22;16737;50.932;6.780;2023-07-28T05:34:14;21.20;99.90
9984;DHT22;16737;50.932;6.780;2023-07-28T05:36:43;21.20;99.90
9984;DHT22;16737;50.932;6.780;2023-07-28T05:39:10;21.20;99.90
9984;DHT22;16737;50.932;6.780;2023-07-28T05:41:37;21.20;99.90
9984;DHT22;16737;50.932;6.780;2023-07-28T05:44:04;21.20;99.90
9984;DHT22;16737;50.932;6.780;2023-07-28T05:46:33;21.20;99.90
9984;DHT22;16737;50.932;6.780;2023-07-28T05:49:00;21.20;99.90
9984;DHT22;16737;50.932;6.780;2023-07-28T05:51:30;21.20;99.90
9984;DHT22;16737;50.932;6.780;2023-07-28T05:53:57;21.30;99.90
9984;DHT22;16737;50.932;6.780;2023-07-28T05:56:24;21.30;99.90
9984;DHT22;16737;50.932;6.780;2023-07-28T05:58:51;21.30;99.90
9984;DHT22;16737;50.932;6.780;2023-07-28T06:01:18;21.30;99.90
9984;DHT22;16737;50.932;6.780;2023-07-28T06:03:46;21.30;99.90
9984;DHT22;16737;50.932;6.780;2023-07-28T06:06:13;21.30;99.90
9984;DHT22;16737;50.932;6.780;2023-07-28T06:08:40;21.30;99.90
9984;DHT22;16737;50.932;6.780;2023-07-28T06:11:07;21.30;99.90
9984;DHT22;16737;50.932;6.780;2023-07-28T06:13:34;21.30;99.90
9984;DHT22;16737;50.932;6.780;2023-07-28T06:16:01;21.30;99.90
9984;DHT22;16737;50.932;6.780;2023-07-28T06:18:28;21.30;99.90
9984;DHT22;16737;50.932;6.780;2023-07-28T06:20:56;21.30;99.90
9984;DHT22;16737;50.932;6.780;2023-07-28T06:23:23;21.30;99.90
9984;DHT22;16737;50.932;6.780;2023-07-28T06:25:50;21.30;99.90
9984;DHT22;16737;50.932;6.780;2023-07-28T06:28:17;21.30;99.90
9984;DHT22;16737;50.932;6.780;2023-07-28T06:30:44;21.30;99.90
9984;DHT22;16737;50.932;6.780;2023-07-28T06:33:11;21.30;99.90
9984;DHT22;16737;50.932;6.780;2023-07-28T06:35:38;21.40;99.90
9984;DHT22;16737;50.932;6.780;2023-07-28T06:38:07;21.40;99.90
9984;DHT22;16737;50.932;6.780;2023-07-28T06:40:33;21.40;99.90
9984;DHT22;16737;50.932;6.780;2023-07-28T06:43:00;21.40;99.90
9984;DHT22;16737;50.932;6.780;2023-07-28T06:45:27;21.40;99.90
9984;DHT22;16737;50.932;6.780;2023-07-28T06:47:54;21.40;99.90
9984;DHT22;16737;50.932;6.780;2023-07-28T06:50:21;21.40;99.90
9984;DHT22;16737;50.932;6.780;2023-07-28T06:52:48;21.40;99.90
9984;DHT22;16737;50.932;6.780;2023-07-28T06:55:17;21.40;99.90
9984;DHT22;16737;50.932;6.780;2023-07-28T06:57:47;21.40;99.90
9984;DHT22;16737;50.932;6.780;2023-07-28T07:00:15;21.50;99.90
9984;DHT22;16737;50.932;6.780;2023-07-28T07:02:43;21.40;99.90
9984;DHT22;16737;50.932;6.780;2023-07-28T07:05:10;21.50;99.90
9984;DHT22;16737;50.932;6.780;2023-07-28T07:07:38;21.40;99.90
9984;DHT22;16737;50.932;6.780;2023-07-28T07:10:08;21.40;99.90
9984;DHT22;16737;50.932;6.780;2023-07-28T07:12:37;21.40;99.90
9984;DHT22;16737;50.932;6.780;2023-07-28T07:15:05;21.50;99.90
9984;DHT22;16737;50.932;6.780;2023-07-28T07:17:33;21.50;99.90
9984;DHT22;16737;50.932;6.780;2023-07-28T07:20:00;21.50;99.90
9984;DHT22;16737;50.932;6.780;2023-07-28T07:22:28;21.50;99.90
9984;DHT22;16737;50.932;6.780;2023-07-28T07:24:55;21.50;99.90
9984;DHT22;16737;50.932;6.780;2023-07-28T07:27:24;21.60;99.90
9984;DHT22;16737;50.932;6.780;2023-07-28T07:29:52;21.60;99.90
9984;DHT22;16737;50.932;6.780;2023-07-28T07:32:19;21.60;99.90
9984;DHT22;16737;50.932;6.780;2023-07-28T07:34:46;21.60;99.90
9984;DHT22;16737;50.932;6.780;2023-07-28T07:37:13;21.60;99.90
9984;DHT22;16737;50.932;6.780;2023-07-28T07:39:41;21.60;99.90
9984;DHT22;16737;50.932;6.780;2023-07-28T07:42:10;21.60;99.90
9984;DHT22;16737;50.932;6.780;2023-07-28T07:44:39;21.70;99.90
9984;DHT22;16737;50.932;6.780;2023-07-28T07:47:13;21.70;99.90
9984;DHT22;16737;50.932;6.780;2023-07-28T07:49:43;21.70;99.90
9984;DHT22;16737;50.932;6.780;2023-07-28T07:52:10;21.80;99.90
9984;DHT22;16737;50.932;6.780;2023-07-28T07:54:37;21.80;99.90
9984;DHT22;16737;50.932;6.780;2023-07-28T07:57:05;21.80;99.90
9984;DHT22;16737;50.932;6.780;2023-07-28T07:59:32;21.80;99.90
9984;DHT22;16737;50.932;6.780;2023-07-28T08:02:00;21.80;99.90
9984;DHT22;16737;50.932;6.780;2023-07-28T08:04:29;21.90;99.90
9984;DHT22;16737;50.932;6.780;2023-07-28T08:06:57;21.90;99.90
9984;DHT22;16737;50.932;6.780;2023-07-28T08:09:23;22.00;99.90
9984;DHT22;16737;50.932;6.780;2023-07-28T08:11:51;22.00;99.90
9984;DHT22;16737;50.932;6.780;2023-07-28T08:14:21;22.10;99.90
9984;DHT22;16737;50.932;6.780;2023-07-28T08:16:51;22.10;99.90
9984;DHT22;16737;50.932;6.780;2023-07-28T08:19:18;22.20;99.90
9984;DHT22;16737;50.932;6.780;2023-07-28T08:21:47;22.20;99.90
9984;DHT22;16737;50.932;6.780;2023-07-28T08:24:14;22.20;99.90
9984;DHT22;16737;50.932;6.780;2023-07-28T08:26:41;22.30;99.90
9984;DHT22;16737;50.932;6.780;2023-07-28T08:29:08;22.40;99.90
9984;DHT22;16737;50.932;6.780;2023-07-28T08:31:35;22.40;99.90
9984;DHT22;16737;50.932;6.780;2023-07-28T08:34:02;22.50;99.90
9984;DHT22;16737;50.932;6.780;2023-07-28T08:36:29;22.50;99.90
9984;DHT22;16737;50.932;6.780;2023-07-28T08:38:57;22.50;99.90
9984;DHT22;16737;50.932;6.780;2023-07-28T08:41:24;22.50;99.90
9984;DHT22;16737;50.932;6.780;2023-07-28T08:43:53;22.60;99.90
9984;DHT22;16737;50.932;6.780;2023-07-28T08:46:20;22.60;99.90
9984;DHT22;16737;50.932;6.780;2023-07-28T08:48:47;22.70;99.90
9984;DHT22;16737;50.932;6.780;2023-07-28T08:51:14;22.70;99.90
9984;DHT22;16737;50.932;6.780;2023-07-28T08:53:41;22.80;99.90
9984;DHT22;16737;50.932;6.780;2023-07-28T08:56:09;22.80;99.90
9984;DHT22;16737;50.932;6.780;2023-07-28T08:58:36;22.90;99.90
9984;DHT22;16737;50.932;6.780;2023-07-28T09:01:03;22.90;99.90
9984;DHT22;16737;50.932;6.780;2023-07-28T09:03:30;23.00;99.90
9984;DHT22;16737;50.932;6.780;2023-07-28T09:05:59;23.10;99.90
9984;DHT22;16737;50.932;6.780;2023-07-28T09:08:28;23.20;99.90
9984;DHT22;16737;50.932;6.780;2023-07-28T09:11:02;23.20;99.90
9984;DHT22;16737;50.932;6.780;2023-07-28T09:13:38;23.30;99.90
9984;DHT22;16737;50.932;6.780;2023-07-28T09:16:16;23.40;99.90
9984;DHT22;16737;50.932;6.780;2023-07-28T09:18:44;23.50;99.90
9984;DHT22;16737;50.932;6.780;2023-07-28T09:21:16;23.50;99.90
9984;DHT22;16737;50.932;6.780;2023-07-28T09:23:44;23.50;99.90
9984;DHT22;16737;50.932;6.780;2023-07-28T09:26:12;23.50;99.90
9984;DHT22;16737;50.932;6.780;2023-07-28T09:28:40;23.60;99.90
9984;DHT22;16737;50.932;6.780;2023-07-28T09:31:08;23.60;99.90
9984;DHT22;16737;50.932;6.780;2023-07-28T09:33:37;23.60;99.90
9984;DHT22;16737;50.932;6.780;2023-07-28T09:36:09;23.60;99.90
9984;DHT22;16737;50.932;6.780;2023-07-28T09:38:38;23.70;99.90
9984;DHT22;16737;50.932;6.780;2023-07-28T09:41:07;23.70;99.90
9984;DHT22;16737;50.932;6.780;2023-07-28T09:43:36;23.80;99.90
9984;DHT22;16737;50.932;6.780;2023-07-28T09:46:08;23.80;99.90
9984;DHT22;16737;50.932;6.780;2023-07-28T09:48:38;23.80;99.90
9984;DHT22;16737;50.932;6.780;2023-07-28T09:51:14;23.80;99.90
9984;DHT22;16737;50.932;6.780;2023-07-28T09:53:49;23.90;99.90
9984;DHT22;16737;50.932;6.780;2023-07-28T09:56:20;23.90;99.90
9984;DHT22;16737;50.932;6.780;2023-07-28T09:58:53;24.00;99.90
9984;DHT22;16737;50.932;6.780;2023-07-28T10:01:23;24.00;99.90
9984;DHT22;16737;50.932;6.780;2023-07-28T10:03:51;24.00;99.90
9984;DHT22;16737;50.932;6.780;2023-07-28T10:06:19;24.10;99.90
9984;DHT22;16737;50.932;6.780;2023-07-28T10:08:47;24.10;99.90
9984;DHT22;16737;50.932;6.780;2023-07-28T10:11:15;24.10;99.90
9984;DHT22;16737;50.932;6.780;2023-07-28T10:13:44;24.10;99.90
9984;DHT22;16737;50.932;6.780;2023-07-28T10:16:12;24.10;99.90
9984;DHT22;16737;50.932;6.780;2023-07-28T10:18:41;24.20;99.90
9984;DHT22;16737;50.932;6.780;2023-07-28T10:21:19;24.20;99.90
9984;DHT22;16737;50.932;6.780;2023-07-28T10:23:54;24.20;99.90
9984;DHT22;16737;50.932;6.780;2023-07-28T10:26:31;24.30;99.90
9984;DHT22;16737;50.932;6.780;2023-07-28T10:29:12;24.30;99.90
9984;DHT22;16737;50.932;6.780;2023-07-28T10:31:51;24.30;99.90
9984;DHT22;16737;50.932;6.780;2023-07-28T10:34:21;24.40;99.90
9984;DHT22;16737;50.932;6.780;2023-07-28T10:36:56;24.40;99.90
9984;DHT22;16737;50.932;6.780;2023-07-28T10:39:27;24.40;99.90
9984;DHT22;16737;50.932;6.780;2023-07-28T10:42:02;24.40;99.90
9984;DHT22;16737;50.932;6.780;2023-07-28T10:44:31;24.50;99.90
9984;DHT22;16737;50.932;6.780;2023-07-28T10:46:59;24.40;99.90
9984;DHT22;16737;50.932;6.780;2023-07-28T10:49:27;24.50;99.90
9984;DHT22;16737;50.932;6.780;2023-07-28T10:51:55;24.50;99.90
9984;DHT22;16737;50.932;6.780;2023-07-28T10:54:22;24.50;99.90
9984;DHT22;16737;50.932;6.780;2023-07-28T10:56:49;24.50;99.90
9984;DHT22;16737;50.932;6.780;2023-07-28T10:59:16;24.60;99.90
9984;DHT22;16737;50.932;6.780;2023-07-28T11:01:43;24.60;99.90
9984;DHT22;16737;50.932;6.780;2023-07-28T11:04:13;24.60;99.90
9984;DHT22;16737;50.932;6.780;2023-07-28T11:06:45;24.70;99.90
9984;DHT22;16737;50.932;6.780;2023-07-28T11:09:14;24.70;99.90
9984;DHT22;16737;50.932;6.780;2023-07-28T11:11:43;24.70;99.90
9984;DHT22;16737;50.932;6.780;2023-07-28T11:14:11;24.70;99.90
9984;DHT22;16737;50.932;6.780;2023-07-28T11:16:40;24.80;99.90
9984;DHT22;16737;50.932;6.780;2023-07-28T11:19:09;24.80;99.90
9984;DHT22;16737;50.932;6.780;2023-07-28T11:21:40;24.90;99.90
9984;DHT22;16737;50.932;6.780;2023-07-28T11:24:10;24.90;99.90
9984;DHT22;16737;50.932;6.780;2023-07-28T11:26:38;24.90;99.90
9984;DHT22;16737;50.932;6.780;2023-07-28T11:29:06;24.90;99.90
9984;DHT22;16737;50.932;6.780;2023-07-28T11:31:34;24.90;99.90
9984;DHT22;16737;50.932;6.780;2023-07-28T11:34:01;25.00;99.90
9984;DHT22;16737;50.932;6.780;2023-07-28T11:36:29;25.10;99.90
9984;DHT22;16737;50.932;6.780;2023-07-28T11:38:59;25.10;99.90
9984;DHT22;16737;50.932;6.780;2023-07-28T11:41:28;25.20;99.90
9984;DHT22;16737;50.932;6.780;2023-07-28T11:43:55;25.20;99.90
9984;DHT22;16737;50.932;6.780;2023-07-28T11:46:35;25.30;99.90
9984;DHT22;16737;50.932;6.780;2023-07-28T11:49:11;25.30;99.90
9984;DHT22;16737;50.932;6.780;2023-07-28T11:51:40;25.30;99.90
9984;DHT22;16737;50.932;6.780;2023-07-28T11:54:10;25.40;99.90
9984;DHT22;16737;50.932;6.780;2023-07-28T11:56:41;25.40;99.90
9984;DHT22;16737;50.932;6.780;2023-07-28T11:59:09;25.50;99.90
9984;DHT22;16737;50.932;6.780;2023-07-28T12:01:51;25.50;99.90
9984;DHT22;16737;50.932;6.780;2023-07-28T12:04:20;25.50;99.90
9984;DHT22;16737;50.932;6.780;2023-07-28T12:07:05;25.60;99.90
9984;DHT22;16737;50.932;6.780;2023-07-28T12:09:47;25.60;99.90
9984;DHT22;16737;50.932;6.780;2023-07-28T12:12:19;25.70;99.90
9984;DHT22;16737;50.932;6.780;2023-07-28T12:14:47;25.70;99.90
9984;DHT22;16737;50.932;6.780;2023-07-28T12:17:17;25.70;99.90
9984;DHT22;16737;50.932;6.780;2023-07-28T12:20:00;25.70;99.90
9984;DHT22;16737;50.932;6.780;2023-07-28T12:22:31;25.80;99.90
9984;DHT22;16737;50.932;6.780;2023-07-28T12:24:58;25.70;99.90
9984;DHT22;16737;50.932;6.780;2023-07-28T12:27:26;25.70;99.90
9984;DHT22;16737;50.932;6.780;2023-07-28T12:29:53;25.80;99.90
9984;DHT22;16737;50.932;6.780;2023-07-28T12:32:20;25.70;99.90
9984;DHT22;16737;50.932;6.780;2023-07-28T12:34:48;25.70;99.90
9984;DHT22;16737;50.932;6.780;2023-07-28T12:37:17;25.70;99.90
9984;DHT22;16737;50.932;6.780;2023-07-28T12:39:44;25.70;99.90
9984;DHT22;16737;50.932;6.780;2023-07-28T12:42:11;25.70;99.90
9984;DHT22;16737;50.932;6.780;2023-07-28T12:44:42;25.60;99.90
9984;DHT22;16737;50.932;6.780;2023-07-28T12:47:09;25.60;99.80
9984;DHT22;16737;50.932;6.780;2023-07-28T12:49:36;25.60;99.90
9984;DHT22;16737;50.932;6.780;2023-07-28T12:52:05;25.60;99.90
9984;DHT22;16737;50.932;6.780;2023-07-28T12:54:34;25.60;99.80
9984;DHT22;16737;50.932;6.780;2023-07-28T12:57:01;25.50;99.90
9984;DHT22;16737;50.932;6.780;2023-07-28T12:59:29;25.50;99.90
9984;DHT22;16737;50.932;6.780;2023-07-28T13:01:57;25.50;99.80
9984;DHT22;16737;50.932;6.780;2023-07-28T13:04:25;25.50;99.70
9984;DHT22;16737;50.932;6.780;2023-07-28T13:06:52;25.50;99.80
9984;DHT22;16737;50.932;6.780;2023-07-28T13:09:19;25.50;99.70
9984;DHT22;16737;50.932;6.780;2023-07-28T13:11:46;25.50;99.70
9984;DHT22;16737;50.932;6.780;2023-07-28T13:14:13;25.40;99.60
9984;DHT22;16737;50.932;6.780;2023-07-28T13:16:40;25.40;99.70
9984;DHT22;16737;50.932;6.780;2023-07-28T13:19:08;25.40;99.80
9984;DHT22;16737;50.932;6.780;2023-07-28T13:21:35;25.40;99.90
9984;DHT22;16737;50.932;6.780;2023-07-28T13:24:02;25.40;99.90
9984;DHT22;16737;50.932;6.780;2023-07-28T13:26:29;25.50;99.90
9984;DHT22;16737;50.932;6.780;2023-07-28T13:28:56;25.50;99.80
9984;DHT22;16737;50.932;6.780;2023-07-28T13:31:25;25.50;99.90
9984;DHT22;16737;50.932;6.780;2023-07-28T13:33:52;25.50;99.80
9984;DHT22;16737;50.932;6.780;2023-07-28T13:36:20;25.50;99.90
9984;DHT22;16737;50.932;6.780;2023-07-28T13:38:47;25.50;99.80
9984;DHT22;16737;50.932;6.780;2023-07-28T13:41:14;25.60;99.80
9984;DHT22;16737;50.932;6.780;2023-07-28T13:43:41;25.60;99.90
9984;DHT22;16737;50.932;6.780;2023-07-28T13:46:08;25.60;99.90
9984;DHT22;16737;50.932;6.780;2023-07-28T13:48:37;25.70;99.90
9984;DHT22;16737;50.932;6.780;2023-07-28T13:51:04;25.70;99.90
9984;DHT22;16737;50.932;6.780;2023-07-28T13:53:33;25.80;99.90
9984;DHT22;16737;50.932;6.780;2023-07-28T13:56:00;25.90;99.90
9984;DHT22;16737;50.932;6.780;2023-07-28T13:58:27;25.90;99.80
9984;DHT22;16737;50.932;6.780;2023-07-28T14:00:54;26.00;99.80
9984;DHT22;16737;50.932;6.780;2023-07-28T14:03:21;26.00;99.60
9984;DHT22;16737;50.932;6.780;2023-07-28T14:05:48;26.10;99.60
9984;DHT22;16737;50.932;6.780;2023-07-28T14:08:15;26.10;99.40
9984;DHT22;16737;50.932;6.780;2023-07-28T14:10:45;26.10;99.30
9984;DHT22;16737;50.932;6.780;2023-07-28T14:13:13;26.20;99.20
9984;DHT22;16737;50.932;6.780;2023-07-28T14:15:40;26.20;99.10
9984;DHT22;16737;50.932;6.780;2023-07-28T14:18:07;26.20;99.00
9984;DHT22;16737;50.932;6.780;2023-07-28T14:20:34;26.20;99.10
9984;DHT22;16737;50.932;6.780;2023-07-28T14:23:20;26.20;99.00
9984;DHT22;16737;50.932;6.780;2023-07-28T14:25:51;26.20;98.60
9984;DHT22;16737;50.932;6.780;2023-07-28T14:28:19;26.20;99.10
9984;DHT22;16737;50.932;6.780;2023-07-28T14:30:47;26.20;98.90
9984;DHT22;16737;50.932;6.780;2023-07-28T14:33:17;26.20;98.70
9984;DHT22;16737;50.932;6.780;2023-07-28T14:35:45;26.20;98.60
9984;DHT22;16737;50.932;6.780;2023-07-28T14:38:13;26.20;98.70
9984;DHT22;16737;50.932;6.780;2023-07-28T14:40:40;26.20;98.70
9984;DHT22;16737;50.932;6.780;2023-07-28T14:43:11;26.20;98.70
9984;DHT22;16737;50.932;6.780;2023-07-28T14:45:38;26.20;98.70
9984;DHT22;16737;50.932;6.780;2023-07-28T14:48:05;26.20;98.70
9984;DHT22;16737;50.932;6.780;2023-07-28T14:50:32;26.30;98.90
9984;DHT22;16737;50.932;6.780;2023-07-28T14:52:59;26.30;98.90
9984;DHT22;16737;50.932;6.780;2023-07-28T14:57:53;26.40;98.70
9984;DHT22;16737;50.932;6.780;2023-07-28T15:00:21;26.40;98.60
9984;DHT22;16737;50.932;6.780;2023-07-28T15:02:48;26.40;98.30
9984;DHT22;16737;50.932;6.780;2023-07-28T15:05:15;26.40;98.40
9984;DHT22;16737;50.932;6.780;2023-07-28T15:07:42;26.40;98.50
9984;DHT22;16737;50.932;6.780;2023-07-28T15:10:10;26.50;98.50
9984;DHT22;16737;50.932;6.780;2023-07-28T15:12:37;26.50;98.50
9984;DHT22;16737;50.932;6.780;2023-07-28T15:15:05;26.50;98.30
9984;DHT22;16737;50.932;6.780;2023-07-28T15:17:34;26.50;98.20
9984;DHT22;16737;50.932;6.780;2023-07-28T15:20:01;26.50;98.20
9984;DHT22;16737;50.932;6.780;2023-07-28T15:22:28;26.50;98.20
9984;DHT22;16737;50.932;6.780;2023-07-28T15:24:58;26.50;98.20
9984;DHT22;16737;50.932;6.780;2023-07-28T15:27:25;26.50;98.10
9984;DHT22;16737;50.932;6.780;2023-07-28T15:29:52;26.60;98.20
9984;DHT22;16737;50.932;6.780;2023-07-28T15:32:19;26.60;98.00
9984;DHT22;16737;50.932;6.780;2023-07-28T15:34:47;26.60;98.00
9984;DHT22;16737;50.932;6.780;2023-07-28T15:37:14;26.60;97.90
9984;DHT22;16737;50.932;6.780;2023-07-28T15:39:41;26.60;97.90
9984;DHT22;16737;50.932;6.780;2023-07-28T15:42:08;26.60;98.00
9984;DHT22;16737;50.932;6.780;2023-07-28T15:44:35;26.60;98.00
9984;DHT22;16737;50.932;6.780;2023-07-28T15:47:02;26.60;98.00
9984;DHT22;16737;50.932;6.780;2023-07-28T15:49:29;26.60;98.00
9984;DHT22;16737;50.932;6.780;2023-07-28T15:51:57;26.50;97.90
9984;DHT22;16737;50.932;6.780;2023-07-28T15:54:24;26.50;97.80